Flight Track Log - Related Links

Times and Time Zones

All times are in EDT time to prevent confusion due to time zone crossing. See the SWA750 flight status page for this flight to view local times or setup timezone preferences in your user account.

Time Position Orientation Groundspeed Altitude Reporting Facility
EDT Latitude Longitude Course Direction KTS MPH feet Rate Location/Type
Fri 10:20:42 PM 39.8406 -104.7567 250° West 165 190 7,300  Level Denver Center
Fri 10:21:44 PM 39.8203 -104.8331 251° West 225 259 9,300 1,984 Climbing Denver Center
Fri 10:22:46 PM 39.7908 -104.9258 248° West 277 319 11,400 2,613 Climbing Denver Center
Fri 10:23:48 PM 39.7514 -105.0392 246° West 315 362 14,700 2,878 Climbing Denver Center
Fri 10:24:49 PM 39.7133 -105.1517 246° West 338 389 17,300 2,439 Climbing Denver Center
Fri 10:25:51 PM 39.6708 -105.2817 247° West 367 422 19,700 2,032 Climbing Denver Center
Fri 10:26:00 PM 39.6001 -105.4412 250° West  Level FlightAware Approximate
Fri 10:26:53 PM 39.6342 -105.4106 250° West 380 437 21,500  Level Denver Center
Fri 10:27:55 PM 39.5931 -105.5456 248° West 403 464 24,000 2,226 Climbing Denver Center
Fri 10:28:57 PM 39.5511 -105.6864 249° West 404 465 26,100 2,274 Climbing Denver Center
Fri 10:29:59 PM 39.5108 -105.8211 249° West 397 457 28,700 2,244 Climbing Denver Center
Fri 10:31:00 PM 39.4747 -105.9533 251° West 387 445 30,700 1,268 Climbing Denver Center
Fri 10:32:02 PM 39.4344 -106.0872 249° West 395 455 31,300 871 Climbing Denver Center
Fri 10:33:04 PM 39.3908 -106.2364 249° West 419 482 32,500 1,500 Climbing Denver Center
Fri 10:34:06 PM 39.3422 -106.3914 248° West 417 480 34,400 1,415 Climbing Denver Center
Fri 10:35:07 PM 39.3025 -106.5228 249° West 411 473 35,400 780 Climbing Denver Center
Fri 10:36:09 PM 39.2622 -106.6550 249° West 414 476 36,000 290 Climbing Denver Center
Fri 10:37:11 PM 39.1956 -106.7950 238° Southwest 410 472 36,000  Level Denver Center
Fri 10:38:13 PM 39.1250 -106.9042 230° Southwest 414 476 36,000  Level Denver Center
Fri 10:39:15 PM 39.0425 -107.0311 230° Southwest 414 476 36,000  Level Denver Center
Fri 10:40:16 PM 38.9725 -107.1392 230° Southwest 411 473 36,000  Level Denver Center
Fri 10:41:18 PM 38.8903 -107.2669 230° Southwest 413 475 36,000  Level Denver Center
Fri 10:42:20 PM 38.8219 -107.3733 231° Southwest 406 467 36,000  Level Denver Center
Fri 10:43:22 PM 38.7381 -107.4997 230° Southwest 415 478 36,000  Level Denver Center
Fri 10:44:23 PM 38.6667 -107.6097 230° Southwest 417 480 36,000  Level Denver Center
Fri 10:45:25 PM 38.5953 -107.7186 230° Southwest 418 481 36,000  Level Denver Center
Fri 10:46:27 PM 38.5108 -107.8450 230° Southwest 419 482 36,000  Level Denver Center
Fri 10:47:28 PM 38.4403 -107.9528 230° Southwest 414 476 36,000  Level Denver Center
Fri 10:48:30 PM 38.3556 -108.0800 230° Southwest 419 482 36,000  Level Denver Center
Fri 10:49:32 PM 38.2703 -108.1717 220° Southwest 426 490 36,000  Level Denver Center
Fri 10:50:33 PM 38.1586 -108.2192 198° South 440 506 36,000  Level Denver Center
Fri 10:51:35 PM 38.0228 -108.2603 193° South 443 510 36,000  Level Denver Center
Fri 10:52:37 PM 37.9083 -108.2947 193° South 441 507 36,000  Level Denver Center
Fri 10:53:38 PM 37.7742 -108.3367 194° South 445 512 36,000  Level Denver Center
Fri 10:54:40 PM 37.6742 -108.4017 207° Southwest 429 494 36,000  Level Denver Center
Fri 10:55:41 PM 37.6281 -108.5192 244° Southwest 396 456 36,000  Level Denver Center
Fri 10:56:43 PM 37.5781 -108.6567 245° Southwest 389 448 36,000  Level Denver Center
Fri 10:57:44 PM 37.5347 -108.7733 245° Southwest 385 443 36,000  Level Denver Center
Fri 10:58:46 PM 37.4844 -108.9075 245° Southwest 382 440 36,000  Level Denver Center
Fri 10:59:47 PM 37.4406 -109.0236 245° Southwest 384 442 36,000  Level Denver Center
Fri 11:01:01 PM 37.3906 -109.1569 245° Southwest 380 437 36,000  Level Denver Center
Fri 11:02:03 PM 37.3406 -109.2900 245° Southwest 378 435 36,000  Level Denver Center
Fri 11:03:04 PM 37.2914 -109.4222 245° Southwest 375 432 36,000  Level Denver Center
Fri 11:04:06 PM 37.2481 -109.5358 244° Southwest 377 434 36,000  Level Denver Center
Fri 11:05:07 PM 37.1964 -109.6706 244° Southwest 383 441 36,000  Level Denver Center
Fri 11:06:09 PM 37.1525 -109.7858 244° Southwest 382 440 36,000  Level Denver Center
Fri 11:07:10 PM 37.1083 -109.9008 244° Southwest 383 441 36,000  Level Denver Center
Fri 11:08:11 PM 37.0564 -110.0353 244° Southwest 385 443 36,000  Level Denver Center
Fri 11:09:13 PM 37.0117 -110.1503 244° Southwest 383 441 36,000  Level Denver Center
Fri 11:10:14 PM 36.9600 -110.2844 244° Southwest 388 447 36,000  Level Denver Center
Fri 11:11:16 PM 36.9133 -110.4033 244° Southwest 383 441 36,000  Level Denver Center
Fri 11:12:17 PM 36.8669 -110.5225 244° Southwest 380 437 36,000  Level Denver Center
Fri 11:13:19 PM 36.8197 -110.6411 244° Southwest 381 438 36,000  Level Denver Center
Fri 11:14:20 PM 36.7736 -110.7594 244° Southwest 379 436 36,000  Level Denver Center
Fri 11:15:22 PM 36.7278 -110.8781 244° Southwest 380 437 36,000  Level Denver Center
Fri 11:16:23 PM 36.6833 -110.9942 245° Southwest 376 433 36,000  Level Denver Center
Fri 11:17:24 PM 36.6267 -111.1347 243° Southwest 376 433 36,000  Level Denver Center
Fri 11:18:38 PM 36.5686 -111.2753 243° Southwest 378 435 36,000  Level Denver Center
Fri 11:19:52 PM 36.5217 -111.3911 243° Southwest 377 434 36,000  Level Denver Center
Fri 11:20:53 PM 36.4672 -111.5294 244° Southwest 372 428 36,000  Level Denver Center
Fri 11:21:55 PM 36.4194 -111.6447 243° Southwest 374 430 36,000  Level Denver Center
Fri 11:22:56 PM 36.3728 -111.7581 243° Southwest 371 427 36,000  Level Denver Center
Fri 11:23:57 PM 36.3264 -111.8708 243° Southwest 368 423 36,000  Level Denver Center
Fri 11:24:32 PM 36.2992 -111.9381 243° Southwest 368 423 36,000  Level Los Angeles Center
Fri 11:25:35 PM 36.2533 -112.0506 243° Southwest 367 422 36,000  Level Los Angeles Center
Fri 11:26:35 PM 36.2147 -112.1419 242° Southwest 371 427 36,000  Level Los Angeles Center
Fri 11:27:39 PM 36.1578 -112.2800 243° Southwest 374 430 36,000  Level Los Angeles Center
Fri 11:28:39 PM 36.1003 -112.4178 243° Southwest 375 432 36,000  Level Los Angeles Center
Fri 11:29:40 PM 36.0528 -112.5325 243° Southwest 375 432 36,000  Level Los Angeles Center
Fri 11:30:42 PM 36.0058 -112.6458 243° Southwest 372 428 36,000  Level Los Angeles Center
Fri 11:31:44 PM 35.9583 -112.7572 242° Southwest 368 423 36,000  Level Los Angeles Center
Fri 11:32:45 PM 35.9103 -112.8722 243° Southwest 368 423 36,000  Level Los Angeles Center
Fri 11:33:47 PM 35.8644 -112.9831 243° Southwest 367 422 36,000  Level Los Angeles Center
Fri 11:34:48 PM 35.8161 -113.0944 242° Southwest 372 428 36,000  Level Los Angeles Center
Fri 11:35:50 PM 35.7686 -113.2061 242° Southwest 373 429 36,000  Level Los Angeles Center
Fri 11:36:52 PM 35.7106 -113.3428 242° Southwest 378 435 36,000  Level Los Angeles Center
Fri 11:37:53 PM 35.6622 -113.4564 242° Southwest 379 436 36,000  Level Los Angeles Center
Fri 11:38:55 PM 35.6139 -113.5686 242° Southwest 376 433 36,000  Level Los Angeles Center
Fri 11:39:56 PM 35.5689 -113.6817 244° Southwest 373 429 36,000  Level Los Angeles Center
Fri 11:40:58 PM 35.5233 -113.7950 244° Southwest 372 428 36,000  Level Los Angeles Center
Fri 11:42:00 PM 35.4772 -113.9072 243° Southwest 371 427 36,000  Level Los Angeles Center
Fri 11:43:01 PM 35.4208 -114.0444 243° Southwest 376 433 36,000  Level Los Angeles Center
Fri 11:44:03 PM 35.3736 -114.1597 243° Southwest 377 434 36,000  Level Los Angeles Center
Fri 11:45:04 PM 35.3253 -114.2772 243° Southwest 382 440 36,000  Level Los Angeles Center
Fri 11:46:06 PM 35.2767 -114.3961 243° Southwest 388 447 36,000  Level Los Angeles Center
Fri 11:47:07 PM 35.2278 -114.5147 243° Southwest 390 449 36,000  Level Los Angeles Center
Fri 11:48:09 PM 35.1783 -114.6311 243° Southwest 386 444 36,000  Level Los Angeles Center
Fri 11:49:11 PM 35.1294 -114.7486 243° Southwest 386 444 36,000  Level Los Angeles Center
Fri 11:50:12 PM 35.0706 -114.8903 243° Southwest 388 447 36,000  Level Los Angeles Center
Fri 11:51:14 PM 35.0217 -115.0064 243° Southwest 387 445 36,000  Level Los Angeles Center
Fri 11:52:15 PM 34.9714 -115.1244 243° Southwest 391 450 36,000  Level Los Angeles Center
Fri 11:53:17 PM 34.9222 -115.2428 243° Southwest 392 451 36,000  Level Los Angeles Center
Fri 11:54:18 PM 34.8725 -115.3597 243° Southwest 388 447 36,000 -439 Level Los Angeles Center
Fri 11:55:20 PM 34.8217 -115.4783 242° Southwest 392 451 35,100 -976 Descending Los Angeles Center
Fri 11:56:21 PM 34.7761 -115.5839 242° Southwest 382 440 34,000 -1,122 Descending Los Angeles Center
Fri 11:57:23 PM 34.7167 -115.7217 242° Southwest 386 444 32,800 -1,073 Descending Los Angeles Center
Fri 11:58:24 PM 34.6686 -115.8342 243° Southwest 377 434 31,800 -927 Descending Los Angeles Center
Fri 11:59:26 PM 34.6208 -115.9461 243° Southwest 373 429 30,900 -878 Descending Los Angeles Center
Sat 12:00:27 AM 34.5694 -116.0633 242° Southwest 388 447 30,000 -732 Descending Los Angeles Center
Sat 12:01:29 AM 34.5183 -116.1800 242° Southwest 390 449 29,400 -774 Descending Los Angeles Center
Sat 12:02:31 AM 34.4686 -116.2950 242° Southwest 386 444 28,400 -976 Descending Los Angeles Center
Sat 12:03:32 AM 34.4178 -116.4092 242° Southwest 386 444 27,400 -976 Descending Los Angeles Center
Sat 12:04:34 AM 34.3675 -116.5253 242° Southwest 388 447 26,400 -976 Descending Los Angeles Center
Sat 12:05:35 AM 34.3189 -116.6353 242° Southwest 375 432 25,400 -1,463 Descending Los Angeles Center
Sat 12:06:37 AM 34.2597 -116.7661 241° Southwest 369 425 23,400 -1,512 Descending Los Angeles Center
Sat 12:07:38 AM 34.2119 -116.8733 242° Southwest 364 419 22,300 -1,415 Descending Los Angeles Center
Sat 12:08:40 AM 34.1653 -116.9792 242° Southwest 357 411 20,500 -1,756 Descending Los Angeles Center
Sat 12:09:41 AM 34.1197 -117.0800 241° Southwest 345 397 18,700 -1,748 Descending Los Angeles Center
Sat 12:10:47 AM 34.0667 -117.2000 242° Southwest 337 388 16,800 -1,800 Descending Southern California TRACON
Sat 12:11:41 AM 34.0500 -117.3000 259° West 346 398 15,100 -1,850 Descending Southern California TRACON
Sat 12:12:47 AM 34.0333 -117.4167 260° West 329 379 13,100 -1,785 Descending Southern California TRACON
Sat 12:13:42 AM 34.0333 -117.5167 270° West 307 353 11,500 -1,409 Descending Southern California TRACON
Sat 12:14:42 AM 34.0333 -117.6167 270° West 302 348 10,400 -850 Descending Southern California TRACON
Sat 12:15:42 AM 34.0167 -117.7167 259° West 258 297 9,800 -900 Descending Southern California TRACON
Sat 12:16:42 AM 34.0167 -117.8000 270° West 262 302 8,600 -1,200 Descending Southern California TRACON
Sat 12:17:42 AM 34.0000 -117.8833 256° West 267 307 7,400 -1,150 Descending Southern California TRACON
Sat 12:18:42 AM 34.0000 -117.9667 270° West 258 297 6,300 -950 Descending Southern California TRACON
Sat 12:19:42 AM 33.9833 -118.0500 256° West 227 261 5,500 -700 Descending Southern California TRACON
Sat 12:20:42 AM 33.9833 -118.1167 270° West 191 220 4,900 -700 Descending Southern California TRACON
Sat 12:21:42 AM 33.9667 -118.1833 253° West 177 204 4,100 -789 Descending Southern California TRACON
Sat 12:21:58 AM 33.9731 -118.1928 309° West 180 207 3,900 -1,013 Descending Los Angeles Center
Sat 12:22:59 AM 33.9672 -118.2533 263° West 180 207 2,800 -1,033 Descending Los Angeles Center
Sat 12:24:00 AM 33.9617 -118.3122 264° West 182 209 1,800 -878 Descending Los Angeles Center
Sat 12:25:02 AM 33.9575 -118.3611 264° West 164 189 1,000 -829 Descending Los Angeles Center
Sat 12:26:03 AM 33.9519 -118.4086 262° West 152 175 100 -885 Descending Los Angeles Center
Sat 12:28:00 AM 33.9425 -118.4081 180° South  Level Estimated

Login

Don't have an account? Register now (free) for customized features, flight alerts, and more!